sensor_id;sensor_type;location;lat;lon;timestamp;P1;durP1;ratioP1;P2;durP2;ratioP2
72275;SDS011;61204;49.980;8.358;2022-10-13T00:00:41;19.52;;;12.10;;
72275;SDS011;61204;49.980;8.358;2022-10-13T00:03:10;20.95;;;14.13;;
72275;SDS011;61204;49.980;8.358;2022-10-13T00:05:40;21.35;;;13.10;;
72275;SDS011;61204;49.980;8.358;2022-10-13T00:08:13;17.52;;;12.45;;
72275;SDS011;61204;49.980;8.358;2022-10-13T00:10:44;26.27;;;14.68;;
72275;SDS011;61204;49.980;8.358;2022-10-13T00:13:13;14.57;;;10.70;;
72275;SDS011;61204;49.980;8.358;2022-10-13T00:15:41;16.90;;;11.70;;
72275;SDS011;61204;49.980;8.358;2022-10-13T00:18:10;21.02;;;12.95;;
72275;SDS011;61204;49.980;8.358;2022-10-13T00:20:43;22.27;;;12.55;;
72275;SDS011;61204;49.980;8.358;2022-10-13T00:23:14;20.75;;;13.25;;
72275;SDS011;61204;49.980;8.358;2022-10-13T00:25:46;17.52;;;12.75;;
72275;SDS011;61204;49.980;8.358;2022-10-13T00:28:15;19.70;;;12.13;;
72275;SDS011;61204;49.980;8.358;2022-10-13T00:30:44;27.10;;;14.32;;
72275;SDS011;61204;49.980;8.358;2022-10-13T00:33:11;20.20;;;13.30;;
72275;SDS011;61204;49.980;8.358;2022-10-13T00:35:39;30.15;;;13.45;;
72275;SDS011;61204;49.980;8.358;2022-10-13T00:38:08;20.90;;;12.13;;
72275;SDS011;61204;49.980;8.358;2022-10-13T00:40:51;16.92;;;10.52;;
72275;SDS011;61204;49.980;8.358;2022-10-13T00:43:20;25.25;;;13.30;;
72275;SDS011;61204;49.980;8.358;2022-10-13T00:46:19;95.68;;;18.80;;
72275;SDS011;61204;49.980;8.358;2022-10-13T00:48:47;70.22;;;15.50;;
72275;SDS011;61204;49.980;8.358;2022-10-13T00:51:17;252.95;;;26.83;;
72275;SDS011;61204;49.980;8.358;2022-10-13T00:53:50;145.48;;;21.90;;
72275;SDS011;61204;49.980;8.358;2022-10-13T00:56:18;403.05;;;49.55;;
72275;SDS011;61204;49.980;8.358;2022-10-13T00:58:47;223.15;;;33.38;;
72275;SDS011;61204;49.980;8.358;2022-10-13T01:01:14;29.33;;;16.00;;
72275;SDS011;61204;49.980;8.358;2022-10-13T01:03:40;20.58;;;13.13;;
72275;SDS011;61204;49.980;8.358;2022-10-13T01:06:06;39.88;;;19.17;;
72275;SDS011;61204;49.980;8.358;2022-10-13T01:08:34;36.78;;;18.38;;
72275;SDS011;61204;49.980;8.358;2022-10-13T01:11:19;30.92;;;16.92;;
72275;SDS011;61204;49.980;8.358;2022-10-13T01:14:24;22.30;;;14.80;;
72275;SDS011;61204;49.980;8.358;2022-10-13T01:20:05;24.85;;;14.77;;
72275;SDS011;61204;49.980;8.358;2022-10-13T01:22:59;18.92;;;13.05;;
72275;SDS011;61204;49.980;8.358;2022-10-13T01:26:22;16.65;;;12.48;;
72275;SDS011;61204;49.980;8.358;2022-10-13T01:32:30;19.38;;;12.95;;
72275;SDS011;61204;49.980;8.358;2022-10-13T01:38:06;18.70;;;12.63;;
72275;SDS011;61204;49.980;8.358;2022-10-13T01:41:09;20.98;;;14.32;;
72275;SDS011;61204;49.980;8.358;2022-10-13T01:44:01;20.50;;;12.60;;
72275;SDS011;61204;49.980;8.358;2022-10-13T01:46:55;19.70;;;11.80;;
72275;SDS011;61204;49.980;8.358;2022-10-13T01:49:26;21.20;;;12.60;;
72275;SDS011;61204;49.980;8.358;2022-10-13T01:52:02;24.83;;;12.52;;
72275;SDS011;61204;49.980;8.358;2022-10-13T01:54:38;22.02;;;13.27;;
72275;SDS011;61204;49.980;8.358;2022-10-13T01:57:25;23.27;;;13.60;;
72275;SDS011;61204;49.980;8.358;2022-10-13T02:00:11;24.88;;;14.48;;
72275;SDS011;61204;49.980;8.358;2022-10-13T02:08:57;28.00;;;15.35;;
72275;SDS011;61204;49.980;8.358;2022-10-13T02:11:33;25.70;;;14.98;;
72275;SDS011;61204;49.980;8.358;2022-10-13T02:14:05;24.95;;;15.93;;
72275;SDS011;61204;49.980;8.358;2022-10-13T02:16:48;28.38;;;15.55;;
72275;SDS011;61204;49.980;8.358;2022-10-13T02:19:18;29.92;;;16.15;;
72275;SDS011;61204;49.980;8.358;2022-10-13T02:21:45;50.88;;;18.45;;
72275;SDS011;61204;49.980;8.358;2022-10-13T02:24:12;47.53;;;19.55;;
72275;SDS011;61204;49.980;8.358;2022-10-13T02:26:38;45.30;;;19.63;;
72275;SDS011;61204;49.980;8.358;2022-10-13T02:29:06;83.55;;;22.20;;
72275;SDS011;61204;49.980;8.358;2022-10-13T02:31:37;43.30;;;20.10;;
72275;SDS011;61204;49.980;8.358;2022-10-13T02:34:03;104.13;;;23.88;;
72275;SDS011;61204;49.980;8.358;2022-10-13T02:36:30;61.08;;;19.80;;
72275;SDS011;61204;49.980;8.358;2022-10-13T02:38:56;141.98;;;29.77;;
72275;SDS011;61204;49.980;8.358;2022-10-13T02:41:22;218.15;;;34.47;;
72275;SDS011;61204;49.980;8.358;2022-10-13T02:43:47;316.92;;;39.60;;
72275;SDS011;61204;49.980;8.358;2022-10-13T02:46:13;332.88;;;40.05;;
72275;SDS011;61204;49.980;8.358;2022-10-13T02:48:38;296.85;;;41.38;;
72275;SDS011;61204;49.980;8.358;2022-10-13T02:51:04;297.90;;;40.38;;
72275;SDS011;61204;49.980;8.358;2022-10-13T02:53:30;318.08;;;42.15;;
72275;SDS011;61204;49.980;8.358;2022-10-13T02:55:56;177.07;;;28.73;;
72275;SDS011;61204;49.980;8.358;2022-10-13T02:58:22;190.63;;;33.20;;
72275;SDS011;61204;49.980;8.358;2022-10-13T03:00:47;311.27;;;41.30;;
72275;SDS011;61204;49.980;8.358;2022-10-13T03:03:13;215.40;;;33.42;;
72275;SDS011;61204;49.980;8.358;2022-10-13T03:05:39;126.80;;;28.60;;
72275;SDS011;61204;49.980;8.358;2022-10-13T03:08:04;44.67;;;19.65;;
72275;SDS011;61204;49.980;8.358;2022-10-13T03:10:30;205.07;;;34.17;;
72275;SDS011;61204;49.980;8.358;2022-10-13T03:12:56;51.70;;;19.40;;
72275;SDS011;61204;49.980;8.358;2022-10-13T03:15:22;125.47;;;29.73;;
72275;SDS011;61204;49.980;8.358;2022-10-13T03:17:49;80.28;;;23.20;;
72275;SDS011;61204;49.980;8.358;2022-10-13T03:20:15;232.45;;;35.10;;
72275;SDS011;61204;49.980;8.358;2022-10-13T03:22:41;244.55;;;36.75;;
72275;SDS011;61204;49.980;8.358;2022-10-13T03:25:07;258.63;;;38.85;;
72275;SDS011;61204;49.980;8.358;2022-10-13T03:27:33;168.70;;;32.28;;
72275;SDS011;61204;49.980;8.358;2022-10-13T03:30:00;96.72;;;24.17;;
72275;SDS011;61204;49.980;8.358;2022-10-13T03:32:28;79.18;;;22.75;;
72275;SDS011;61204;49.980;8.358;2022-10-13T03:34:55;117.05;;;27.67;;
72275;SDS011;61204;49.980;8.358;2022-10-13T03:37:21;92.47;;;26.50;;
72275;SDS011;61204;49.980;8.358;2022-10-13T03:39:46;84.53;;;26.48;;
72275;SDS011;61204;49.980;8.358;2022-10-13T03:42:12;79.82;;;26.67;;
72275;SDS011;61204;49.980;8.358;2022-10-13T03:44:38;64.88;;;27.10;;
72275;SDS011;61204;49.980;8.358;2022-10-13T03:47:03;66.72;;;25.42;;
72275;SDS011;61204;49.980;8.358;2022-10-13T03:49:29;50.00;;;22.50;;
72275;SDS011;61204;49.980;8.358;2022-10-13T03:51:54;49.47;;;20.58;;
72275;SDS011;61204;49.980;8.358;2022-10-13T03:54:20;42.85;;;21.92;;
72275;SDS011;61204;49.980;8.358;2022-10-13T03:56:46;50.05;;;21.65;;
72275;SDS011;61204;49.980;8.358;2022-10-13T03:59:12;55.50;;;23.02;;
72275;SDS011;61204;49.980;8.358;2022-10-13T04:01:40;46.28;;;20.70;;
72275;SDS011;61204;49.980;8.358;2022-10-13T04:04:07;51.50;;;21.80;;
72275;SDS011;61204;49.980;8.358;2022-10-13T04:06:36;47.40;;;21.00;;
72275;SDS011;61204;49.980;8.358;2022-10-13T04:09:02;42.67;;;20.17;;
72275;SDS011;61204;49.980;8.358;2022-10-13T04:11:28;41.80;;;20.73;;
72275;SDS011;61204;49.980;8.358;2022-10-13T04:13:54;46.05;;;20.30;;
72275;SDS011;61204;49.980;8.358;2022-10-13T04:16:23;55.58;;;22.92;;
72275;SDS011;61204;49.980;8.358;2022-10-13T04:18:55;58.58;;;21.98;;
72275;SDS011;61204;49.980;8.358;2022-10-13T04:21:30;61.75;;;22.85;;
72275;SDS011;61204;49.980;8.358;2022-10-13T04:23:59;49.72;;;22.05;;
72275;SDS011;61204;49.980;8.358;2022-10-13T04:26:28;46.47;;;21.60;;
72275;SDS011;61204;49.980;8.358;2022-10-13T04:28:59;43.78;;;21.27;;
72275;SDS011;61204;49.980;8.358;2022-10-13T04:31:29;43.63;;;20.20;;
72275;SDS011;61204;49.980;8.358;2022-10-13T04:33:56;110.10;;;26.92;;
72275;SDS011;61204;49.980;8.358;2022-10-13T04:36:22;57.90;;;22.80;;
72275;SDS011;61204;49.980;8.358;2022-10-13T04:38:50;75.90;;;25.80;;
72275;SDS011;61204;49.980;8.358;2022-10-13T04:41:17;76.72;;;24.02;;
72275;SDS011;61204;49.980;8.358;2022-10-13T04:43:48;101.40;;;26.02;;
72275;SDS011;61204;49.980;8.358;2022-10-13T04:46:19;100.25;;;25.38;;
72275;SDS011;61204;49.980;8.358;2022-10-13T04:48:51;87.63;;;24.30;;
72275;SDS011;61204;49.980;8.358;2022-10-13T04:51:18;70.35;;;24.23;;
72275;SDS011;61204;49.980;8.358;2022-10-13T04:53:52;103.05;;;26.92;;
72275;SDS011;61204;49.980;8.358;2022-10-13T04:56:22;164.85;;;27.80;;
72275;SDS011;61204;49.980;8.358;2022-10-13T04:58:49;316.67;;;39.75;;
72275;SDS011;61204;49.980;8.358;2022-10-13T05:01:16;261.10;;;39.40;;
72275;SDS011;61204;49.980;8.358;2022-10-13T05:03:54;88.78;;;22.67;;
72275;SDS011;61204;49.980;8.358;2022-10-13T05:06:26;112.45;;;25.40;;
72275;SDS011;61204;49.980;8.358;2022-10-13T05:08:59;240.27;;;33.30;;
72275;SDS011;61204;49.980;8.358;2022-10-13T05:11:25;259.60;;;39.55;;
72275;SDS011;61204;49.980;8.358;2022-10-13T05:13:52;269.60;;;37.67;;
72275;SDS011;61204;49.980;8.358;2022-10-13T05:16:20;283.10;;;40.13;;
72275;SDS011;61204;49.980;8.358;2022-10-13T05:18:48;243.45;;;35.33;;
72275;SDS011;61204;49.980;8.358;2022-10-13T05:21:17;149.35;;;30.27;;
72275;SDS011;61204;49.980;8.358;2022-10-13T05:23:47;289.00;;;40.13;;
72275;SDS011;61204;49.980;8.358;2022-10-13T05:26:16;313.70;;;40.63;;
72275;SDS011;61204;49.980;8.358;2022-10-13T05:28:42;411.88;;;52.03;;
72275;SDS011;61204;49.980;8.358;2022-10-13T05:33:44;394.73;;;47.63;;
72275;SDS011;61204;49.980;8.358;2022-10-13T05:36:13;318.60;;;42.50;;
72275;SDS011;61204;49.980;8.358;2022-10-13T05:38:50;342.25;;;47.80;;
72275;SDS011;61204;49.980;8.358;2022-10-13T05:41:22;322.02;;;50.65;;
72275;SDS011;61204;49.980;8.358;2022-10-13T05:43:52;225.50;;;37.47;;
72275;SDS011;61204;49.980;8.358;2022-10-13T05:46:23;202.43;;;38.22;;
72275;SDS011;61204;49.980;8.358;2022-10-13T05:48:49;310.23;;;43.60;;
72275;SDS011;61204;49.980;8.358;2022-10-13T05:51:16;283.40;;;39.55;;
72275;SDS011;61204;49.980;8.358;2022-10-13T05:54:00;217.82;;;36.55;;
72275;SDS011;61204;49.980;8.358;2022-10-13T05:56:37;195.43;;;36.33;;
72275;SDS011;61204;49.980;8.358;2022-10-13T05:59:12;130.50;;;30.15;;
72275;SDS011;61204;49.980;8.358;2022-10-13T06:01:43;102.28;;;26.70;;
72275;SDS011;61204;49.980;8.358;2022-10-13T06:04:13;78.82;;;29.05;;
72275;SDS011;61204;49.980;8.358;2022-10-13T06:06:48;125.80;;;28.52;;
72275;SDS011;61204;49.980;8.358;2022-10-13T06:09:15;118.88;;;27.48;;
72275;SDS011;61204;49.980;8.358;2022-10-13T06:11:41;106.63;;;26.60;;
72275;SDS011;61204;49.980;8.358;2022-10-13T06:14:07;139.57;;;30.35;;
72275;SDS011;61204;49.980;8.358;2022-10-13T06:16:33;123.22;;;30.95;;
72275;SDS011;61204;49.980;8.358;2022-10-13T06:19:03;141.13;;;32.63;;
72275;SDS011;61204;49.980;8.358;2022-10-13T06:21:29;102.28;;;28.67;;
72275;SDS011;61204;49.980;8.358;2022-10-13T06:23:55;122.28;;;30.00;;
72275;SDS011;61204;49.980;8.358;2022-10-13T06:26:21;200.57;;;37.55;;
72275;SDS011;61204;49.980;8.358;2022-10-13T06:28:47;92.43;;;28.08;;
72275;SDS011;61204;49.980;8.358;2022-10-13T06:31:12;66.25;;;24.25;;
72275;SDS011;61204;49.980;8.358;2022-10-13T06:33:38;113.80;;;30.05;;
72275;SDS011;61204;49.980;8.358;2022-10-13T06:36:04;108.57;;;27.83;;
72275;SDS011;61204;49.980;8.358;2022-10-13T06:38:31;58.15;;;25.05;;
72275;SDS011;61204;49.980;8.358;2022-10-13T06:40:58;54.47;;;23.45;;
72275;SDS011;61204;49.980;8.358;2022-10-13T06:43:29;79.43;;;26.88;;
72275;SDS011;61204;49.980;8.358;2022-10-13T06:45:56;60.63;;;25.85;;
72275;SDS011;61204;49.980;8.358;2022-10-13T06:48:24;49.83;;;24.77;;
72275;SDS011;61204;49.980;8.358;2022-10-13T06:50:53;57.42;;;24.98;;
72275;SDS011;61204;49.980;8.358;2022-10-13T06:53:19;90.43;;;28.70;;
72275;SDS011;61204;49.980;8.358;2022-10-13T06:55:45;90.88;;;29.75;;
72275;SDS011;61204;49.980;8.358;2022-10-13T06:58:11;75.95;;;28.90;;
72275;SDS011;61204;49.980;8.358;2022-10-13T07:00:39;72.30;;;29.75;;
72275;SDS011;61204;49.980;8.358;2022-10-13T07:03:06;66.57;;;26.33;;
72275;SDS011;61204;49.980;8.358;2022-10-13T07:05:31;49.35;;;25.10;;
72275;SDS011;61204;49.980;8.358;2022-10-13T07:07:57;55.25;;;24.80;;
72275;SDS011;61204;49.980;8.358;2022-10-13T07:10:23;59.60;;;26.73;;
72275;SDS011;61204;49.980;8.358;2022-10-13T07:12:49;56.92;;;26.08;;
72275;SDS011;61204;49.980;8.358;2022-10-13T07:15:15;43.38;;;24.40;;
72275;SDS011;61204;49.980;8.358;2022-10-13T07:17:41;46.30;;;24.73;;
72275;SDS011;61204;49.980;8.358;2022-10-13T07:20:07;49.25;;;22.85;;
72275;SDS011;61204;49.980;8.358;2022-10-13T07:22:33;44.17;;;22.02;;
72275;SDS011;61204;49.980;8.358;2022-10-13T07:24:59;55.67;;;24.13;;
72275;SDS011;61204;49.980;8.358;2022-10-13T07:27:26;50.13;;;22.38;;
72275;SDS011;61204;49.980;8.358;2022-10-13T07:29:52;42.75;;;22.15;;
72275;SDS011;61204;49.980;8.358;2022-10-13T07:32:18;42.10;;;21.40;;
72275;SDS011;61204;49.980;8.358;2022-10-13T07:34:43;42.50;;;21.58;;
72275;SDS011;61204;49.980;8.358;2022-10-13T07:37:09;41.15;;;20.65;;
72275;SDS011;61204;49.980;8.358;2022-10-13T07:39:34;35.78;;;20.70;;
72275;SDS011;61204;49.980;8.358;2022-10-13T07:42:00;35.80;;;21.35;;
72275;SDS011;61204;49.980;8.358;2022-10-13T07:44:25;38.53;;;21.75;;
72275;SDS011;61204;49.980;8.358;2022-10-13T07:46:51;32.05;;;20.65;;
72275;SDS011;61204;49.980;8.358;2022-10-13T07:49:17;36.60;;;22.55;;
72275;SDS011;61204;49.980;8.358;2022-10-13T07:51:42;38.95;;;22.45;;
72275;SDS011;61204;49.980;8.358;2022-10-13T07:54:09;35.00;;;21.40;;
72275;SDS011;61204;49.980;8.358;2022-10-13T07:56:34;35.80;;;22.88;;
72275;SDS011;61204;49.980;8.358;2022-10-13T07:59:00;31.83;;;20.88;;
72275;SDS011;61204;49.980;8.358;2022-10-13T08:01:29;33.00;;;20.92;;
72275;SDS011;61204;49.980;8.358;2022-10-13T08:03:55;32.60;;;20.20;;
72275;SDS011;61204;49.980;8.358;2022-10-13T08:06:20;32.63;;;20.27;;
72275;SDS011;61204;49.980;8.358;2022-10-13T08:08:46;30.80;;;20.27;;
72275;SDS011;61204;49.980;8.358;2022-10-13T08:11:13;30.90;;;19.95;;
72275;SDS011;61204;49.980;8.358;2022-10-13T08:13:41;31.98;;;20.75;;
72275;SDS011;61204;49.980;8.358;2022-10-13T08:16:06;33.63;;;21.75;;
72275;SDS011;61204;49.980;8.358;2022-10-13T08:18:34;30.80;;;21.02;;
72275;SDS011;61204;49.980;8.358;2022-10-13T08:21:00;34.03;;;21.55;;
72275;SDS011;61204;49.980;8.358;2022-10-13T08:23:28;34.50;;;21.90;;
72275;SDS011;61204;49.980;8.358;2022-10-13T08:25:54;32.22;;;21.13;;
72275;SDS011;61204;49.980;8.358;2022-10-13T08:28:22;38.67;;;21.08;;
72275;SDS011;61204;49.980;8.358;2022-10-13T08:30:52;28.58;;;20.05;;
72275;SDS011;61204;49.980;8.358;2022-10-13T08:33:22;25.20;;;18.65;;
72275;SDS011;61204;49.980;8.358;2022-10-13T08:35:50;28.33;;;18.30;;
72275;SDS011;61204;49.980;8.358;2022-10-13T08:38:17;27.73;;;19.02;;
72275;SDS011;61204;49.980;8.358;2022-10-13T08:40:47;26.27;;;19.25;;
72275;SDS011;61204;49.980;8.358;2022-10-13T08:43:16;30.73;;;18.63;;
72275;SDS011;61204;49.980;8.358;2022-10-13T08:45:47;25.33;;;17.77;;
72275;SDS011;61204;49.980;8.358;2022-10-13T08:48:17;21.83;;;17.80;;
72275;SDS011;61204;49.980;8.358;2022-10-13T08:50:51;26.55;;;18.50;;
72275;SDS011;61204;49.980;8.358;2022-10-13T08:55:55;30.70;;;17.85;;
72275;SDS011;61204;49.980;8.358;2022-10-13T08:58:30;23.48;;;17.45;;
72275;SDS011;61204;49.980;8.358;2022-10-13T09:01:11;26.38;;;18.33;;
72275;SDS011;61204;49.980;8.358;2022-10-13T09:06:46;27.40;;;18.55;;
72275;SDS011;61204;49.980;8.358;2022-10-13T09:09:17;28.52;;;18.88;;
72275;SDS011;61204;49.980;8.358;2022-10-13T09:11:44;23.70;;;17.02;;
72275;SDS011;61204;49.980;8.358;2022-10-13T09:14:26;28.25;;;18.33;;
72275;SDS011;61204;49.980;8.358;2022-10-13T09:16:56;25.88;;;18.88;;
72275;SDS011;61204;49.980;8.358;2022-10-13T09:19:41;27.65;;;19.08;;
72275;SDS011;61204;49.980;8.358;2022-10-13T09:22:18;25.00;;;19.25;;
72275;SDS011;61204;49.980;8.358;2022-10-13T09:27:43;28.83;;;20.20;;
72275;SDS011;61204;49.980;8.358;2022-10-13T09:35:37;32.30;;;20.95;;
72275;SDS011;61204;49.980;8.358;2022-10-13T09:38:15;27.60;;;19.85;;
72275;SDS011;61204;49.980;8.358;2022-10-13T09:40:59;28.17;;;20.67;;
72275;SDS011;61204;49.980;8.358;2022-10-13T09:46:11;25.85;;;19.17;;
72275;SDS011;61204;49.980;8.358;2022-10-13T09:48:57;33.83;;;20.25;;
72275;SDS011;61204;49.980;8.358;2022-10-13T09:51:42;27.92;;;19.10;;
72275;SDS011;61204;49.980;8.358;2022-10-13T09:57:03;27.73;;;19.60;;
72275;SDS011;61204;49.980;8.358;2022-10-13T10:02:49;31.60;;;21.38;;
72275;SDS011;61204;49.980;8.358;2022-10-13T10:05:49;33.33;;;21.58;;
72275;SDS011;61204;49.980;8.358;2022-10-13T10:11:32;33.70;;;20.75;;
72275;SDS011;61204;49.980;8.358;2022-10-13T10:23:42;31.00;;;20.05;;
72275;SDS011;61204;49.980;8.358;2022-10-13T10:26:24;34.85;;;20.77;;
72275;SDS011;61204;49.980;8.358;2022-10-13T10:29:43;36.85;;;20.50;;
72275;SDS011;61204;49.980;8.358;2022-10-13T10:35:19;32.72;;;20.67;;
72275;SDS011;61204;49.980;8.358;2022-10-13T10:41:25;36.38;;;21.85;;
72275;SDS011;61204;49.980;8.358;2022-10-13T10:44:13;39.05;;;22.27;;
72275;SDS011;61204;49.980;8.358;2022-10-13T10:46:49;35.60;;;22.02;;
72275;SDS011;61204;49.980;8.358;2022-10-13T10:49:39;36.03;;;22.33;;
72275;SDS011;61204;49.980;8.358;2022-10-13T10:52:07;32.65;;;22.35;;
72275;SDS011;61204;49.980;8.358;2022-10-13T10:54:56;29.27;;;21.63;;
72275;SDS011;61204;49.980;8.358;2022-10-13T11:00:36;32.25;;;21.17;;
72275;SDS011;61204;49.980;8.358;2022-10-13T11:34:58;33.72;;;20.98;;
72275;SDS011;61204;49.980;8.358;2022-10-13T11:37:43;29.02;;;20.33;;
72275;SDS011;61204;49.980;8.358;2022-10-13T11:50:24;30.63;;;19.45;;
72275;SDS011;61204;49.980;8.358;2022-10-13T11:53:22;31.52;;;20.70;;
72275;SDS011;61204;49.980;8.358;2022-10-13T11:55:57;26.42;;;19.58;;
72275;SDS011;61204;49.980;8.358;2022-10-13T11:58:30;29.67;;;19.95;;
72275;SDS011;61204;49.980;8.358;2022-10-13T12:00:58;28.55;;;19.30;;
72275;SDS011;61204;49.980;8.358;2022-10-13T12:03:41;27.30;;;18.45;;
72275;SDS011;61204;49.980;8.358;2022-10-13T12:09:06;31.25;;;20.65;;
72275;SDS011;61204;49.980;8.358;2022-10-13T12:11:43;31.88;;;20.92;;
72275;SDS011;61204;49.980;8.358;2022-10-13T12:14:19;25.38;;;18.83;;
72275;SDS011;61204;49.980;8.358;2022-10-13T12:17:02;26.83;;;19.90;;
72275;SDS011;61204;49.980;8.358;2022-10-13T12:19:42;28.65;;;18.63;;
72275;SDS011;61204;49.980;8.358;2022-10-13T12:22:11;26.50;;;18.73;;
72275;SDS011;61204;49.980;8.358;2022-10-13T12:24:38;28.23;;;18.58;;
72275;SDS011;61204;49.980;8.358;2022-10-13T12:27:14;30.00;;;19.65;;
72275;SDS011;61204;49.980;8.358;2022-10-13T12:29:45;22.42;;;16.63;;
72275;SDS011;61204;49.980;8.358;2022-10-13T12:32:19;22.25;;;17.30;;
72275;SDS011;61204;49.980;8.358;2022-10-13T12:34:52;22.02;;;16.45;;
72275;SDS011;61204;49.980;8.358;2022-10-13T12:37:31;21.17;;;17.17;;
72275;SDS011;61204;49.980;8.358;2022-10-13T12:40:00;23.67;;;16.65;;
72275;SDS011;61204;49.980;8.358;2022-10-13T12:42:31;23.88;;;15.80;;
72275;SDS011;61204;49.980;8.358;2022-10-13T12:45:01;22.92;;;17.13;;
72275;SDS011;61204;49.980;8.358;2022-10-13T12:53:13;22.52;;;15.43;;
72275;SDS011;61204;49.980;8.358;2022-10-13T12:55:56;20.02;;;15.70;;
72275;SDS011;61204;49.980;8.358;2022-10-13T12:58:31;20.42;;;14.88;;
72275;SDS011;61204;49.980;8.358;2022-10-13T13:03:56;18.75;;;15.00;;
72275;SDS011;61204;49.980;8.358;2022-10-13T13:06:55;18.60;;;14.23;;
72275;SDS011;61204;49.980;8.358;2022-10-13T13:09:31;18.98;;;13.30;;
72275;SDS011;61204;49.980;8.358;2022-10-13T13:14:41;20.42;;;13.27;;
72275;SDS011;61204;49.980;8.358;2022-10-13T13:19:41;15.43;;;12.48;;
72275;SDS011;61204;49.980;8.358;2022-10-13T13:22:11;14.45;;;12.63;;
72275;SDS011;61204;49.980;8.358;2022-10-13T13:24:38;16.00;;;12.35;;
72275;SDS011;61204;49.980;8.358;2022-10-13T13:29:57;15.13;;;11.95;;
72275;SDS011;61204;49.980;8.358;2022-10-13T13:32:23;18.17;;;12.57;;
72275;SDS011;61204;49.980;8.358;2022-10-13T13:34:51;16.60;;;13.65;;
72275;SDS011;61204;49.980;8.358;2022-10-13T13:37:25;15.88;;;12.45;;
72275;SDS011;61204;49.980;8.358;2022-10-13T13:40:03;17.25;;;13.32;;
72275;SDS011;61204;49.980;8.358;2022-10-13T13:42:31;15.48;;;12.60;;
72275;SDS011;61204;49.980;8.358;2022-10-13T13:44:58;18.65;;;12.88;;
72275;SDS011;61204;49.980;8.358;2022-10-13T13:47:24;18.23;;;14.02;;
72275;SDS011;61204;49.980;8.358;2022-10-13T13:49:53;18.80;;;12.15;;
72275;SDS011;61204;49.980;8.358;2022-10-13T13:52:21;15.77;;;11.45;;
72275;SDS011;61204;49.980;8.358;2022-10-13T13:54:49;20.88;;;13.27;;
72275;SDS011;61204;49.980;8.358;2022-10-13T13:57:16;22.77;;;13.45;;
72275;SDS011;61204;49.980;8.358;2022-10-13T13:59:43;16.15;;;12.55;;
72275;SDS011;61204;49.980;8.358;2022-10-13T14:02:11;18.55;;;12.80;;
72275;SDS011;61204;49.980;8.358;2022-10-13T14:04:43;18.90;;;13.23;;
72275;SDS011;61204;49.980;8.358;2022-10-13T14:07:10;20.90;;;13.93;;
72275;SDS011;61204;49.980;8.358;2022-10-13T14:09:37;19.30;;;14.35;;
72275;SDS011;61204;49.980;8.358;2022-10-13T14:12:03;25.35;;;17.63;;
72275;SDS011;61204;49.980;8.358;2022-10-13T14:14:30;21.98;;;16.50;;
72275;SDS011;61204;49.980;8.358;2022-10-13T14:16:57;23.27;;;17.60;;
72275;SDS011;61204;49.980;8.358;2022-10-13T14:19:25;20.95;;;16.10;;
72275;SDS011;61204;49.980;8.358;2022-10-13T14:21:52;21.70;;;16.13;;
72275;SDS011;61204;49.980;8.358;2022-10-13T14:24:18;22.33;;;17.55;;
72275;SDS011;61204;49.980;8.358;2022-10-13T14:26:44;19.63;;;17.42;;
72275;SDS011;61204;49.980;8.358;2022-10-13T14:29:09;20.98;;;16.13;;
72275;SDS011;61204;49.980;8.358;2022-10-13T14:31:35;22.75;;;16.40;;
72275;SDS011;61204;49.980;8.358;2022-10-13T14:34:01;20.50;;;16.92;;
72275;SDS011;61204;49.980;8.358;2022-10-13T14:36:27;28.77;;;17.42;;
72275;SDS011;61204;49.980;8.358;2022-10-13T14:38:52;24.80;;;18.17;;
72275;SDS011;61204;49.980;8.358;2022-10-13T14:41:19;22.02;;;15.48;;
72275;SDS011;61204;49.980;8.358;2022-10-13T14:43:45;24.08;;;16.85;;
72275;SDS011;61204;49.980;8.358;2022-10-13T14:46:11;19.02;;;16.58;;
72275;SDS011;61204;49.980;8.358;2022-10-13T14:48:37;27.60;;;17.17;;
72275;SDS011;61204;49.980;8.358;2022-10-13T14:51:07;19.75;;;16.02;;
72275;SDS011;61204;49.980;8.358;2022-10-13T14:53:35;22.10;;;15.95;;
72275;SDS011;61204;49.980;8.358;2022-10-13T14:58:49;20.30;;;16.08;;
72275;SDS011;61204;49.980;8.358;2022-10-13T15:01:20;19.65;;;15.35;;
72275;SDS011;61204;49.980;8.358;2022-10-13T15:03:46;23.83;;;16.33;;
72275;SDS011;61204;49.980;8.358;2022-10-13T15:06:22;20.52;;;16.73;;
72275;SDS011;61204;49.980;8.358;2022-10-13T15:08:50;22.25;;;17.35;;
72275;SDS011;61204;49.980;8.358;2022-10-13T15:11:17;23.70;;;18.08;;
72275;SDS011;61204;49.980;8.358;2022-10-13T15:13:46;21.83;;;16.55;;
72275;SDS011;61204;49.980;8.358;2022-10-13T15:16:19;26.88;;;17.95;;
72275;SDS011;61204;49.980;8.358;2022-10-13T15:18:50;24.58;;;17.55;;
72275;SDS011;61204;49.980;8.358;2022-10-13T15:21:16;21.30;;;16.55;;
72275;SDS011;61204;49.980;8.358;2022-10-13T15:23:42;23.23;;;16.65;;
72275;SDS011;61204;49.980;8.358;2022-10-13T15:26:10;19.65;;;16.02;;
72275;SDS011;61204;49.980;8.358;2022-10-13T15:28:41;27.38;;;17.50;;
72275;SDS011;61204;49.980;8.358;2022-10-13T15:31:11;24.98;;;15.93;;
72275;SDS011;61204;49.980;8.358;2022-10-13T15:33:42;24.23;;;17.83;;
72275;SDS011;61204;49.980;8.358;2022-10-13T15:36:12;22.55;;;17.77;;
72275;SDS011;61204;49.980;8.358;2022-10-13T15:38:38;23.30;;;17.58;;
72275;SDS011;61204;49.980;8.358;2022-10-13T15:41:05;21.90;;;17.13;;
72275;SDS011;61204;49.980;8.358;2022-10-13T15:43:32;26.40;;;19.20;;
72275;SDS011;61204;49.980;8.358;2022-10-13T15:45:59;25.30;;;19.17;;
72275;SDS011;61204;49.980;8.358;2022-10-13T15:48:33;29.88;;;20.73;;
72275;SDS011;61204;49.980;8.358;2022-10-13T15:50:59;23.60;;;20.05;;
72275;SDS011;61204;49.980;8.358;2022-10-13T15:53:26;25.88;;;20.95;;
72275;SDS011;61204;49.980;8.358;2022-10-13T15:55:54;29.40;;;22.65;;
72275;SDS011;61204;49.980;8.358;2022-10-13T15:58:20;30.70;;;23.98;;
72275;SDS011;61204;49.980;8.358;2022-10-13T16:00:45;35.60;;;24.85;;
72275;SDS011;61204;49.980;8.358;2022-10-13T16:03:15;33.55;;;25.90;;
72275;SDS011;61204;49.980;8.358;2022-10-13T16:05:45;36.00;;;24.52;;
72275;SDS011;61204;49.980;8.358;2022-10-13T16:08:11;38.05;;;28.10;;
72275;SDS011;61204;49.980;8.358;2022-10-13T16:10:38;40.40;;;27.77;;
72275;SDS011;61204;49.980;8.358;2022-10-13T16:13:07;38.30;;;27.92;;
72275;SDS011;61204;49.980;8.358;2022-10-13T16:15:37;38.85;;;29.90;;
72275;SDS011;61204;49.980;8.358;2022-10-13T16:18:03;40.05;;;29.10;;
72275;SDS011;61204;49.980;8.358;2022-10-13T16:20:29;41.92;;;29.77;;
72275;SDS011;61204;49.980;8.358;2022-10-13T16:22:58;41.67;;;29.73;;
72275;SDS011;61204;49.980;8.358;2022-10-13T16:25:25;40.88;;;30.63;;
72275;SDS011;61204;49.980;8.358;2022-10-13T16:27:50;43.75;;;31.73;;
72275;SDS011;61204;49.980;8.358;2022-10-13T16:30:16;45.05;;;31.33;;
72275;SDS011;61204;49.980;8.358;2022-10-13T16:32:42;48.38;;;32.60;;
72275;SDS011;61204;49.980;8.358;2022-10-13T16:35:08;45.60;;;32.13;;
72275;SDS011;61204;49.980;8.358;2022-10-13T16:37:34;43.13;;;30.13;;
72275;SDS011;61204;49.980;8.358;2022-10-13T16:40:00;49.35;;;33.13;;
72275;SDS011;61204;49.980;8.358;2022-10-13T16:42:25;44.25;;;32.63;;
72275;SDS011;61204;49.980;8.358;2022-10-13T16:44:51;54.42;;;34.22;;